createdAt,value
2017-05-15T00:00:10.303Z,1023.73
2017-05-15T00:00:50.775Z,1023.73
2017-05-15T00:01:31.314Z,1023.72
2017-05-15T00:02:11.781Z,1023.77
2017-05-15T00:02:52.262Z,1023.78
2017-05-15T00:03:32.740Z,1023.79
2017-05-15T00:04:13.218Z,1023.79
2017-05-15T00:04:53.724Z,1023.78
2017-05-15T00:05:34.300Z,1023.8
2017-05-15T00:06:14.784Z,1023.81
2017-05-15T00:06:55.233Z,1023.76
2017-05-15T00:07:35.744Z,1023.81
2017-05-15T00:08:16.266Z,1023.85
2017-05-15T00:08:56.780Z,1023.81
2017-05-15T00:09:37.276Z,1023.83
2017-05-15T00:10:17.760Z,1023.85
2017-05-15T00:10:58.247Z,1023.88
2017-05-15T00:11:38.745Z,1023.85
2017-05-15T00:12:19.267Z,1023.87
2017-05-15T00:12:59.768Z,1023.87
2017-05-15T00:13:40.236Z,1023.87
2017-05-15T00:14:20.751Z,1023.87
2017-05-15T00:15:01.285Z,1023.85
2017-05-15T00:15:41.715Z,1023.88
2017-05-15T00:16:22.194Z,1023.88
2017-05-15T00:17:02.730Z,1023.86
2017-05-15T00:17:43.172Z,1023.89
2017-05-15T00:18:23.666Z,1023.86
2017-05-15T00:19:04.180Z,1023.83
2017-05-15T00:19:44.668Z,1023.86
2017-05-15T00:20:25.162Z,1023.87
2017-05-15T00:21:05.640Z,1023.86
2017-05-15T00:21:46.098Z,1023.82
2017-05-15T00:22:26.581Z,1023.89
2017-05-15T00:23:07.054Z,1023.88
2017-05-15T00:23:47.513Z,1023.92
2017-05-15T00:24:28.009Z,1023.94
2017-05-15T00:25:08.454Z,1023.92
2017-05-15T00:25:48.953Z,1023.88
2017-05-15T00:26:29.426Z,1023.9
2017-05-15T00:27:09.917Z,1023.91
2017-05-15T00:27:50.439Z,1023.88
2017-05-15T00:28:30.917Z,1023.89
2017-05-15T00:29:11.402Z,1023.87
2017-05-15T00:29:51.888Z,1023.86
2017-05-15T00:30:32.369Z,1023.92
2017-05-15T00:31:12.904Z,1023.93
2017-05-15T00:31:53.359Z,1023.86
2017-05-15T00:32:33.810Z,1023.94
2017-05-15T00:33:14.358Z,1023.91
2017-05-15T00:33:54.810Z,1023.91
2017-05-15T00:34:35.275Z,1023.92
2017-05-15T00:35:15.782Z,1023.96
2017-05-15T00:35:56.253Z,1023.94
2017-05-15T00:36:36.732Z,1023.93
2017-05-15T00:37:17.216Z,1023.96
2017-05-15T00:37:57.723Z,1023.91
2017-05-15T00:38:38.169Z,1023.94
2017-05-15T00:39:18.650Z,1023.94
2017-05-15T00:39:59.143Z,1023.94
2017-05-15T00:40:39.594Z,1023.9
2017-05-15T00:41:20.081Z,1023.93
2017-05-15T00:42:00.566Z,1023.96
2017-05-15T00:42:41.055Z,1023.98
2017-05-15T00:43:21.595Z,1023.97
2017-05-15T00:44:02.158Z,1023.94
2017-05-15T00:44:42.696Z,1023.95
2017-05-15T00:45:23.193Z,1023.95
2017-05-15T00:46:03.660Z,1023.99
2017-05-15T00:46:44.195Z,1024
2017-05-15T00:47:24.657Z,1023.99
2017-05-15T00:48:05.183Z,1024
2017-05-15T00:48:45.638Z,1023.98
2017-05-15T00:49:26.126Z,1024.01
2017-05-15T00:50:06.623Z,1024.01
2017-05-15T00:50:47.131Z,1023.98
2017-05-15T00:51:27.601Z,1024.01
2017-05-15T00:52:08.159Z,1024.03
2017-05-15T00:52:48.648Z,1024.02
2017-05-15T00:53:29.171Z,1023.97
2017-05-15T00:54:09.643Z,1024.01
2017-05-15T00:54:50.126Z,1024.03
2017-05-15T00:55:30.622Z,1024.04
2017-05-15T00:56:11.094Z,1024.05
2017-05-15T00:56:51.588Z,1024.05
2017-05-15T00:57:32.073Z,1024.06
2017-05-15T00:58:12.641Z,1024.13
2017-05-15T00:58:53.181Z,1024.08
2017-05-15T00:59:33.686Z,1024.11
2017-05-15T01:00:14.155Z,1024.08
2017-05-15T01:00:54.644Z,1024.13
2017-05-15T01:01:35.076Z,1024.14
2017-05-15T01:02:15.582Z,1024.1
2017-05-15T01:02:56.031Z,1024.11
2017-05-15T01:03:36.501Z,1024.12
2017-05-15T01:04:16.980Z,1024.22
2017-05-15T01:04:57.430Z,1024.14
2017-05-15T01:05:37.963Z,1024.14
2017-05-15T01:06:18.454Z,1024.16
2017-05-15T01:06:58.961Z,1024.19
2017-05-15T01:07:39.486Z,1024.17
2017-05-15T01:08:19.960Z,1024.21
2017-05-15T01:09:00.434Z,1024.22
2017-05-15T01:09:40.920Z,1024.25
2017-05-15T01:10:21.401Z,1024.23
2017-05-15T01:11:01.881Z,1024.24
2017-05-15T01:11:42.352Z,1024.18
2017-05-15T01:12:22.839Z,1024.24
2017-05-15T01:13:03.370Z,1024.25
2017-05-15T01:13:43.833Z,1024.21
2017-05-15T01:14:24.334Z,1024.25
2017-05-15T01:15:04.817Z,1024.23
2017-05-15T01:15:45.257Z,1024.21
2017-05-15T01:16:25.749Z,1024.36
2017-05-15T01:17:06.244Z,1024.24
2017-05-15T01:17:46.758Z,1024.31
2017-05-15T01:18:27.267Z,1024.29
2017-05-15T01:19:07.834Z,1024.28
2017-05-15T01:19:48.190Z,1024.33
2017-05-15T01:20:28.687Z,1024.32
2017-05-15T01:21:09.183Z,1024.32
2017-05-15T01:21:49.682Z,1024.34
2017-05-15T01:22:30.128Z,1024.34
2017-05-15T01:23:10.660Z,1024.34
2017-05-15T01:23:51.156Z,1024.34
2017-05-15T01:24:31.665Z,1024.36
2017-05-15T01:25:12.168Z,1024.37
2017-05-15T01:25:52.678Z,1024.34
2017-05-15T01:26:33.142Z,1024.35
2017-05-15T01:27:13.617Z,1024.34
2017-05-15T01:27:54.125Z,1024.33
2017-05-15T01:28:34.656Z,1024.35
2017-05-15T01:29:15.093Z,1024.39
2017-05-15T01:29:55.569Z,1024.36
2017-05-15T01:30:36.169Z,1024.35
2017-05-15T01:31:16.577Z,1024.45
2017-05-15T01:31:57.068Z,1024.36
2017-05-15T01:32:37.530Z,1024.38
2017-05-15T01:33:18.026Z,1024.4
2017-05-15T01:33:58.570Z,1024.41
2017-05-15T01:34:38.994Z,1024.43
2017-05-15T01:35:19.508Z,1024.41
2017-05-15T01:36:00.010Z,1024.39
2017-05-15T01:36:40.525Z,1024.44
2017-05-15T01:37:21.000Z,1024.43
2017-05-15T01:38:01.509Z,1024.43
2017-05-15T01:38:41.975Z,1024.37
2017-05-15T01:39:22.431Z,1024.42
2017-05-15T01:40:07.942Z,1024.4
2017-05-15T01:40:48.372Z,1024.41
2017-05-15T01:41:28.824Z,1024.45
2017-05-15T01:42:09.298Z,1024.44
2017-05-15T01:42:49.766Z,1024.45
2017-05-15T01:43:30.371Z,1024.48
2017-05-15T01:44:10.823Z,1024.45
2017-05-15T01:44:51.339Z,1024.43
2017-05-15T01:45:31.810Z,1024.49
2017-05-15T01:46:12.275Z,1024.45
2017-05-15T01:46:52.818Z,1024.49
2017-05-15T01:47:33.243Z,1024.48
2017-05-15T01:48:15.367Z,1024.49
2017-05-15T01:48:55.856Z,1024.55
2017-05-15T01:49:36.327Z,1024.49
2017-05-15T01:50:16.818Z,1024.48
2017-05-15T01:50:57.314Z,1024.52
2017-05-15T01:51:37.826Z,1024.54
2017-05-15T01:52:18.263Z,1024.56
2017-05-15T01:52:58.968Z,1024.57
2017-05-15T01:53:39.246Z,1024.57
2017-05-15T01:54:19.735Z,1024.62
2017-05-15T01:55:00.239Z,1024.62
2017-05-15T01:55:40.714Z,1024.63
2017-05-15T01:56:21.208Z,1024.64
2017-05-15T01:57:01.735Z,1024.58
2017-05-15T01:57:42.198Z,1024.55
2017-05-15T01:58:22.680Z,1024.65
2017-05-15T01:59:03.178Z,1024.6
2017-05-15T02:01:27.108Z,1024.65
2017-05-15T02:02:15.361Z,1024.7
2017-05-15T02:03:03.830Z,1024.63
2017-05-15T02:03:52.301Z,1024.63
2017-05-15T02:04:40.983Z,1024.68
2017-05-15T02:05:29.768Z,1024.67
2017-05-15T02:06:18.512Z,1024.66
2017-05-15T02:07:07.172Z,1024.69
2017-05-15T02:07:55.663Z,1024.72
2017-05-15T02:08:43.777Z,1024.66
2017-05-15T02:09:32.741Z,1024.66
2017-05-15T02:10:20.713Z,1024.66
2017-05-15T02:12:19.067Z,1024.71
2017-05-15T02:13:08.040Z,1024.66
2017-05-15T02:13:56.222Z,1024.66
2017-05-15T02:14:44.874Z,1024.68
2017-05-15T02:15:33.371Z,1024.65
2017-05-15T02:16:21.841Z,1024.66
2017-05-15T02:17:11.111Z,1024.67
2017-05-15T02:17:59.636Z,1024.66
2017-05-15T02:20:21.796Z,1024.67
2017-05-15T02:21:10.219Z,1024.71
2017-05-15T02:21:58.768Z,1024.67
2017-05-15T02:22:47.266Z,1024.68
2017-05-15T02:23:35.931Z,1024.67
2017-05-15T02:24:24.269Z,1024.68
2017-05-15T02:25:12.673Z,1024.76
2017-05-15T02:26:01.633Z,1024.7
2017-05-15T02:26:49.930Z,1024.75
2017-05-15T02:27:38.619Z,1024.81
2017-05-15T02:28:27.097Z,1024.72
2017-05-15T02:29:15.604Z,1024.75
2017-05-15T02:30:04.676Z,1024.76
2017-05-15T02:30:52.892Z,1024.78
2017-05-15T02:31:41.824Z,1024.8
2017-05-15T02:32:30.105Z,1024.83
2017-05-15T02:33:19.153Z,1024.8
2017-05-15T02:34:07.750Z,1024.81
2017-05-15T02:34:56.652Z,1024.88
2017-05-15T02:35:45.369Z,1024.89
2017-05-15T02:36:33.525Z,1024.89
2017-05-15T02:37:22.245Z,1024.87
2017-05-15T02:38:10.546Z,1024.86
2017-05-15T02:38:59.106Z,1024.86
2017-05-15T02:39:47.629Z,1024.81
2017-05-15T02:40:36.908Z,1024.85
2017-05-15T02:41:25.340Z,1024.89
2017-05-15T02:42:14.032Z,1024.9
2017-05-15T02:43:02.778Z,1024.89
2017-05-15T02:43:51.289Z,1024.92
2017-05-15T02:44:39.819Z,1024.84
2017-05-15T02:45:28.494Z,1024.9
2017-05-15T02:47:55.297Z,1024.98
2017-05-15T02:48:43.739Z,1024.96
2017-05-15T02:49:32.413Z,1024.97
2017-05-15T02:50:20.926Z,1024.97
2017-05-15T02:51:09.054Z,1025.04
2017-05-15T02:51:58.191Z,1025.01
2017-05-15T02:52:46.660Z,1025.02
2017-05-15T02:53:35.033Z,1025.05
2017-05-15T02:54:23.599Z,1025.02
2017-05-15T02:55:12.114Z,1025.08
2017-05-15T02:55:56.850Z,1025.04
2017-05-15T02:58:22.307Z,1025.16
2017-05-15T02:59:11.347Z,1025.25
2017-05-15T03:00:00.126Z,1025.13
2017-05-15T03:00:48.432Z,1025.22
2017-05-15T03:01:37.708Z,1025.17
2017-05-15T03:02:25.920Z,1025.2
2017-05-15T03:03:15.117Z,1025.19
2017-05-15T03:04:03.447Z,1025.16
2017-05-15T03:04:52.220Z,1025.2
2017-05-15T03:05:40.475Z,1025.18
2017-05-15T03:06:29.270Z,1025.18
2017-05-15T03:07:18.586Z,1025.25
2017-05-15T03:08:07.382Z,1025.28
2017-05-15T03:08:56.279Z,1025.3
2017-05-15T03:09:44.412Z,1025.29
2017-05-15T03:10:33.397Z,1025.3
2017-05-15T03:11:21.563Z,1025.34
2017-05-15T03:12:10.496Z,1025.29
2017-05-15T03:12:58.800Z,1025.38
2017-05-15T03:13:47.524Z,1025.32
2017-05-15T03:14:36.425Z,1025.33
2017-05-15T03:15:24.505Z,1025.41
2017-05-15T03:16:13.083Z,1025.3
2017-05-15T03:16:58.116Z,1025.36
2017-05-15T03:17:47.085Z,1025.36
2017-05-15T03:18:35.665Z,1025.4
2017-05-15T03:19:24.091Z,1025.41
2017-05-15T03:20:12.838Z,1025.42
2017-05-15T03:21:01.868Z,1025.38
2017-05-15T03:21:50.056Z,1025.39
2017-05-15T03:22:38.570Z,1025.43
2017-05-15T03:23:27.538Z,1025.43
2017-05-15T03:24:16.109Z,1025.47
2017-05-15T03:24:59.386Z,1025.45
2017-05-15T03:25:39.888Z,1025.46
2017-05-15T03:26:20.374Z,1025.42
2017-05-15T03:27:00.829Z,1025.46
2017-05-15T03:27:41.301Z,1025.42
2017-05-15T03:28:21.772Z,1025.44
2017-05-15T03:29:02.313Z,1025.4
2017-05-15T03:29:42.782Z,1025.45
2017-05-15T03:30:23.343Z,1025.42
2017-05-15T03:31:03.764Z,1025.48
2017-05-15T03:31:44.300Z,1025.45
2017-05-15T03:32:24.719Z,1025.47
2017-05-15T03:33:05.206Z,1025.37
2017-05-15T03:33:45.724Z,1025.43
2017-05-15T03:34:26.233Z,1025.44
2017-05-15T03:35:06.758Z,1025.44
2017-05-15T03:35:47.218Z,1025.46
2017-05-15T03:36:27.695Z,1025.45
2017-05-15T03:37:08.281Z,1025.46
2017-05-15T03:37:48.764Z,1025.45
2017-05-15T03:38:29.274Z,1025.51
2017-05-15T03:39:09.743Z,1025.47
2017-05-15T03:39:50.281Z,1025.46
2017-05-15T03:40:30.761Z,1025.48
2017-05-15T03:41:11.242Z,1025.58
2017-05-15T03:41:51.714Z,1025.55
2017-05-15T03:42:32.189Z,1025.59
2017-05-15T03:43:12.691Z,1025.54
2017-05-15T03:43:53.205Z,1025.54
2017-05-15T03:44:33.739Z,1025.57
2017-05-15T03:45:14.226Z,1025.54
2017-05-15T03:45:54.744Z,1025.52
2017-05-15T03:46:35.214Z,1025.57
2017-05-15T03:47:15.691Z,1025.54
2017-05-15T03:47:56.221Z,1025.62
2017-05-15T03:48:36.763Z,1025.62
2017-05-15T03:49:17.241Z,1025.63
2017-05-15T03:49:57.717Z,1025.61
2017-05-15T03:50:38.230Z,1025.56
2017-05-15T03:51:18.759Z,1025.61
2017-05-15T03:51:59.182Z,1025.63
2017-05-15T03:52:39.756Z,1025.61
2017-05-15T03:53:20.198Z,1025.58
2017-05-15T03:54:00.694Z,1025.58
2017-05-15T03:54:41.150Z,1025.54
2017-05-15T03:55:21.641Z,1025.55
2017-05-15T03:56:02.128Z,1025.58
2017-05-15T03:56:42.629Z,1025.6
2017-05-15T03:57:23.135Z,1025.58
2017-05-15T03:58:03.575Z,1025.62
2017-05-15T03:58:44.077Z,1025.57
2017-05-15T03:59:24.566Z,1025.61
2017-05-15T04:00:05.090Z,1025.57
2017-05-15T04:00:45.551Z,1025.59
2017-05-15T04:01:26.039Z,1025.6
2017-05-15T04:02:06.520Z,1025.61
2017-05-15T04:02:47.001Z,1025.64
2017-05-15T04:03:27.582Z,1025.7
2017-05-15T04:04:08.118Z,1025.73
2017-05-15T04:04:48.595Z,1025.73
2017-05-15T04:05:29.106Z,1025.7
2017-05-15T04:06:09.612Z,1025.72
2017-05-15T04:06:50.067Z,1025.76
2017-05-15T04:07:30.563Z,1025.71
2017-05-15T04:08:11.109Z,1025.74
2017-05-15T04:08:51.544Z,1025.75
2017-05-15T04:09:32.038Z,1025.78
2017-05-15T04:10:12.530Z,1025.78
2017-05-15T04:10:53.048Z,1025.78
2017-05-15T04:11:33.521Z,1025.82
2017-05-15T04:12:13.994Z,1025.81
2017-05-15T04:12:54.437Z,1025.79
2017-05-15T04:13:34.934Z,1025.81
2017-05-15T04:14:15.407Z,1025.8
2017-05-15T04:14:55.926Z,1025.83
2017-05-15T04:15:36.357Z,1025.76
2017-05-15T04:16:16.924Z,1025.77
2017-05-15T04:16:57.380Z,1025.78
2017-05-15T04:17:37.887Z,1025.78
2017-05-15T04:18:18.338Z,1025.82
2017-05-15T04:18:58.830Z,1025.77
2017-05-15T04:19:39.303Z,1025.82
2017-05-15T04:20:19.767Z,1025.85
2017-05-15T04:21:00.293Z,1025.84
2017-05-15T04:21:40.739Z,1025.89
2017-05-15T04:22:21.239Z,1025.89
2017-05-15T04:23:01.732Z,1025.91
2017-05-15T04:23:42.217Z,1025.93
2017-05-15T04:24:22.735Z,1025.93
2017-05-15T04:25:03.237Z,1025.94
2017-05-15T04:25:43.718Z,1025.96
2017-05-15T04:26:24.193Z,1025.97
2017-05-15T04:27:04.722Z,1025.97
2017-05-15T04:27:45.169Z,1025.99
2017-05-15T04:28:25.645Z,1025.98
2017-05-15T04:29:06.166Z,1025.98
2017-05-15T04:29:46.640Z,1025.99
2017-05-15T04:30:27.093Z,1026.03
2017-05-15T04:31:07.610Z,1026.03
2017-05-15T04:31:48.052Z,1026.05
2017-05-15T04:32:28.552Z,1026.1
2017-05-15T04:33:09.077Z,1026.14
2017-05-15T04:33:49.505Z,1026.12
2017-05-15T04:34:29.983Z,1026.12
2017-05-15T04:35:10.466Z,1026.14
2017-05-15T04:35:50.954Z,1026.15
2017-05-15T04:36:31.455Z,1026.17
2017-05-15T04:37:11.918Z,1026.13
2017-05-15T04:37:52.394Z,1026.18
2017-05-15T04:38:32.897Z,1026.15
2017-05-15T04:39:13.338Z,1026.14
2017-05-15T04:39:53.796Z,1026.15
2017-05-15T04:40:34.276Z,1026.16
2017-05-15T04:41:14.813Z,1026.13
2017-05-15T04:41:55.247Z,1026.14
2017-05-15T04:42:35.737Z,1026.11
2017-05-15T04:43:16.225Z,1026.15
2017-05-15T04:43:56.683Z,1026.13
2017-05-15T04:44:37.139Z,1026.12
2017-05-15T04:45:17.620Z,1026.2
2017-05-15T04:45:58.129Z,1026.2
2017-05-15T04:46:38.586Z,1026.21
2017-05-15T04:47:19.094Z,1026.2
2017-05-15T04:47:59.532Z,1026.23
2017-05-15T04:48:40.055Z,1026.25
2017-05-15T04:49:20.553Z,1026.23
2017-05-15T04:50:01.008Z,1026.22
2017-05-15T04:50:41.514Z,1026.24
2017-05-15T04:51:22.013Z,1026.23
2017-05-15T04:52:02.477Z,1026.25
2017-05-15T04:52:42.954Z,1026.23
2017-05-15T04:53:23.461Z,1026.21
2017-05-15T04:54:03.924Z,1026.25
2017-05-15T04:54:44.399Z,1026.27
2017-05-15T04:55:24.901Z,1026.3
2017-05-15T04:56:05.389Z,1026.3
2017-05-15T04:56:45.910Z,1026.28
2017-05-15T04:57:26.360Z,1026.31
2017-05-15T04:58:06.845Z,1026.3
2017-05-15T04:58:47.319Z,1026.26
2017-05-15T04:59:27.818Z,1026.28
2017-05-15T05:00:08.321Z,1026.32
2017-05-15T05:00:48.772Z,1026.25
2017-05-15T05:01:29.249Z,1026.25
2017-05-15T05:02:09.729Z,1026.3
2017-05-15T05:02:50.214Z,1026.32
2017-05-15T05:03:30.704Z,1026.22
2017-05-15T05:04:11.215Z,1026.29
2017-05-15T05:04:51.690Z,1026.29
2017-05-15T05:05:32.146Z,1026.3
2017-05-15T05:06:12.607Z,1026.28
2017-05-15T05:06:53.155Z,1026.28
2017-05-15T05:07:33.664Z,1026.31
2017-05-15T05:08:14.161Z,1026.33
2017-05-15T05:08:54.658Z,1026.31
2017-05-15T05:09:35.116Z,1026.39
2017-05-15T05:10:15.618Z,1026.39
2017-05-15T05:10:56.083Z,1026.35
2017-05-15T05:11:36.607Z,1026.35
2017-05-15T05:12:17.055Z,1026.38
2017-05-15T05:12:57.535Z,1026.42
2017-05-15T05:13:38.002Z,1026.44
2017-05-15T05:14:18.508Z,1026.51
2017-05-15T05:14:58.957Z,1026.49
2017-05-15T05:15:39.430Z,1026.43
2017-05-15T05:16:19.899Z,1026.41
2017-05-15T05:17:00.387Z,1026.45
2017-05-15T05:17:40.902Z,1026.47
2017-05-15T05:18:21.360Z,1026.52
2017-05-15T05:19:01.820Z,1026.54
2017-05-15T05:19:42.280Z,1026.55
2017-05-15T05:20:22.759Z,1026.51
2017-05-15T05:21:03.275Z,1026.5
2017-05-15T05:21:43.785Z,1026.54
2017-05-15T05:22:24.269Z,1026.52
2017-05-15T05:23:04.701Z,1026.56
2017-05-15T05:23:45.251Z,1026.58
2017-05-15T05:24:25.708Z,1026.57
2017-05-15T05:25:06.176Z,1026.57
2017-05-15T05:25:46.658Z,1026.58
2017-05-15T05:26:27.137Z,1026.6
2017-05-15T05:27:07.570Z,1026.59
2017-05-15T05:27:48.066Z,1026.63
2017-05-15T05:28:28.573Z,1026.64
2017-05-15T05:29:09.096Z,1026.62
2017-05-15T05:29:49.525Z,1026.67
2017-05-15T05:30:29.998Z,1026.65
2017-05-15T05:31:10.468Z,1026.64
2017-05-15T05:31:50.945Z,1026.63
2017-05-15T05:32:31.420Z,1026.65
2017-05-15T05:33:11.938Z,1026.62
2017-05-15T05:33:52.430Z,1026.62
2017-05-15T05:34:32.871Z,1026.63
2017-05-15T05:35:13.346Z,1026.64
2017-05-15T05:35:53.827Z,1026.65
2017-05-15T05:36:34.280Z,1026.69
2017-05-15T05:37:14.779Z,1026.66
2017-05-15T05:37:55.265Z,1026.67
2017-05-15T05:38:35.748Z,1026.67
2017-05-15T05:39:16.279Z,1026.69
2017-05-15T05:39:56.721Z,1026.7
2017-05-15T05:40:37.176Z,1026.76
2017-05-15T05:41:17.969Z,1026.7
2017-05-15T05:41:59.859Z,1026.73
2017-05-15T05:42:40.465Z,1026.79
2017-05-15T05:43:20.953Z,1026.76
2017-05-15T05:44:01.452Z,1026.78
2017-05-15T05:44:41.993Z,1026.84
2017-05-15T05:45:22.466Z,1026.82
2017-05-15T05:46:02.919Z,1026.8
2017-05-15T05:46:43.429Z,1026.87
2017-05-15T05:47:23.903Z,1026.89
2017-05-15T05:48:04.383Z,1026.91
2017-05-15T05:48:44.842Z,1027
2017-05-15T05:49:25.332Z,1026.96
2017-05-15T05:50:05.850Z,1026.99
2017-05-15T05:50:46.313Z,1026.94
2017-05-15T05:51:26.865Z,1027.03
2017-05-15T05:52:07.352Z,1026.96
2017-05-15T05:52:47.830Z,1026.99
2017-05-15T05:53:28.314Z,1027
2017-05-15T05:54:08.794Z,1027.02
2017-05-15T05:54:49.310Z,1026.99
2017-05-15T05:55:29.836Z,1027.04
2017-05-15T05:56:10.319Z,1027.04
2017-05-15T05:56:50.801Z,1027.1
2017-05-15T05:57:31.294Z,1027.02
2017-05-15T05:58:11.808Z,1027.02
2017-05-15T05:58:52.308Z,1027.08
2017-05-15T05:59:32.881Z,1027.05
2017-05-15T06:00:13.341Z,1027.1
2017-05-15T06:00:53.883Z,1027.12
2017-05-15T06:01:34.381Z,1027.12
2017-05-15T06:03:47.640Z,1027.18
2017-05-15T06:04:28.058Z,1027.13
2017-05-15T06:05:08.548Z,1027.14
2017-05-15T06:05:49.177Z,1027.16
2017-05-15T06:06:29.639Z,1027.19
2017-05-15T06:07:10.102Z,1027.24
2017-05-15T06:07:50.566Z,1027.21
2017-05-15T06:08:31.082Z,1027.26
2017-05-15T06:09:11.528Z,1027.28
2017-05-15T06:09:52.012Z,1027.25
2017-05-15T06:10:32.485Z,1027.26
2017-05-15T06:11:12.993Z,1027.21
2017-05-15T06:11:53.498Z,1027.24
2017-05-15T06:12:33.994Z,1027.28
2017-05-15T06:13:14.573Z,1027.27
2017-05-15T06:13:55.048Z,1027.26
2017-05-15T06:14:35.507Z,1027.34
2017-05-15T06:15:16.002Z,1027.36
2017-05-15T06:15:56.508Z,1027.45
2017-05-15T06:16:37.003Z,1027.4
2017-05-15T06:17:17.506Z,1027.47
2017-05-15T06:17:57.992Z,1027.46
2017-05-15T06:18:38.572Z,1027.46
2017-05-15T06:19:19.066Z,1027.48
2017-05-15T06:19:59.548Z,1027.54
2017-05-15T06:20:40.056Z,1027.48
2017-05-15T06:21:20.547Z,1027.48
2017-05-15T06:22:01.037Z,1027.49
2017-05-15T06:22:41.491Z,1027.49
2017-05-15T06:23:21.970Z,1027.51
2017-05-15T06:24:02.455Z,1027.53
2017-05-15T06:24:42.967Z,1027.52
2017-05-15T06:25:23.505Z,1027.49
2017-05-15T06:26:03.989Z,1027.46
2017-05-15T06:26:44.474Z,1027.47
2017-05-15T06:27:24.958Z,1027.44
2017-05-15T06:28:05.442Z,1027.47
2017-05-15T06:28:45.913Z,1027.48
2017-05-15T06:29:26.413Z,1027.5
2017-05-15T06:30:06.938Z,1027.47
2017-05-15T06:30:47.478Z,1027.5
2017-05-15T06:31:27.940Z,1027.47
2017-05-15T06:32:08.464Z,1027.46
2017-05-15T06:32:48.906Z,1027.52
2017-05-15T06:33:29.413Z,1027.47
2017-05-15T06:34:09.879Z,1027.53
2017-05-15T06:34:50.386Z,1027.57
2017-05-15T06:35:30.869Z,1027.58
2017-05-15T06:36:11.354Z,1027.61
2017-05-15T06:36:51.853Z,1027.58
2017-05-15T06:37:32.371Z,1027.57
2017-05-15T06:38:12.836Z,1027.56
2017-05-15T06:38:53.321Z,1027.6
2017-05-15T06:39:33.818Z,1027.63
2017-05-15T06:40:14.294Z,1027.61
2017-05-15T06:40:54.785Z,1027.6
2017-05-15T06:41:35.287Z,1027.63
2017-05-15T06:42:15.844Z,1027.64
2017-05-15T06:42:56.307Z,1027.64
2017-05-15T06:43:36.792Z,1027.67
2017-05-15T06:44:17.276Z,1027.72
2017-05-15T06:44:57.816Z,1027.65
2017-05-15T06:45:38.318Z,1027.65
2017-05-15T06:46:18.845Z,1027.71
2017-05-15T06:46:59.417Z,1027.64
2017-05-15T06:47:39.852Z,1027.73
2017-05-15T06:48:20.439Z,1027.68
2017-05-15T06:49:00.927Z,1027.75
2017-05-15T06:49:41.380Z,1027.74
2017-05-15T06:50:21.960Z,1027.71
2017-05-15T06:51:02.441Z,1027.74
2017-05-15T06:51:42.978Z,1027.78
2017-05-15T06:52:23.674Z,1027.78
2017-05-15T06:53:04.153Z,1027.79
2017-05-15T06:53:44.676Z,1027.73
2017-05-15T06:54:25.207Z,1027.76
2017-05-15T06:55:05.714Z,1027.8
2017-05-15T06:55:46.787Z,1027.77
2017-05-15T06:56:27.254Z,1027.79
2017-05-15T06:57:07.765Z,1027.8
2017-05-15T06:57:48.272Z,1027.79
2017-05-15T06:58:28.965Z,1027.86
2017-05-15T06:59:09.480Z,1027.83
2017-05-15T06:59:50.018Z,1027.86
2017-05-15T07:00:30.438Z,1027.84
2017-05-15T07:01:10.939Z,1027.88
2017-05-15T07:01:51.429Z,1027.87
2017-05-15T07:02:31.965Z,1027.88
2017-05-15T07:03:12.438Z,1027.92
2017-05-15T07:03:52.929Z,1027.88
2017-05-15T07:04:33.462Z,1027.83
2017-05-15T07:05:13.989Z,1027.86
2017-05-15T07:05:54.433Z,1027.93
2017-05-15T07:06:36.064Z,1027.87
2017-05-15T07:07:17.289Z,1027.87
2017-05-15T07:08:01.147Z,1027.89
2017-05-15T07:08:48.114Z,1027.87
2017-05-15T07:09:37.078Z,1027.91
2017-05-15T07:10:25.036Z,1027.93
2017-05-15T07:11:12.265Z,1027.94
2017-05-15T07:12:02.356Z,1027.95
2017-05-15T07:12:49.931Z,1027.96
2017-05-15T07:13:39.387Z,1028.03
2017-05-15T07:14:27.490Z,1028.02
2017-05-15T07:15:16.929Z,1028.01
2017-05-15T07:16:05.273Z,1027.96
2017-05-15T07:16:49.639Z,1027.97
2017-05-15T07:19:14.406Z,1028.03
2017-05-15T07:20:03.973Z,1028
2017-05-15T07:20:51.460Z,1028
2017-05-15T07:21:35.599Z,1027.97
2017-05-15T07:22:17.988Z,1027.97
2017-05-15T07:22:59.075Z,1027.94
2017-05-15T07:23:43.096Z,1027.96
2017-05-15T07:24:23.695Z,1027.99
2017-05-15T07:25:04.344Z,1027.97
2017-05-15T07:25:46.526Z,1028.04
2017-05-15T07:26:28.810Z,1028.09
2017-05-15T07:27:09.717Z,1028.03
2017-05-15T07:27:50.739Z,1028.06
2017-05-15T07:28:42.823Z,1028.08
2017-05-15T07:29:23.997Z,1028.09
2017-05-15T07:30:06.367Z,1028.06
2017-05-15T07:30:47.366Z,1028.11
2017-05-15T07:31:28.638Z,1028.13
2017-05-15T07:32:09.117Z,1028.19
2017-05-15T07:32:57.343Z,1028.2
2017-05-15T07:33:37.545Z,1028.11
2017-05-15T07:34:20.030Z,1028.12
2017-05-15T07:35:04.228Z,1028.09
2017-05-15T07:35:46.512Z,1028.13
2017-05-15T07:36:29.512Z,1028.1
2017-05-15T07:37:10.031Z,1028.12
2017-05-15T07:37:53.142Z,1028.11
2017-05-15T07:38:34.811Z,1028.16
2017-05-15T07:39:15.866Z,1028.15
2017-05-15T07:39:56.355Z,1028.14
2017-05-15T07:40:38.493Z,1028.12
2017-05-15T07:41:19.088Z,1028.14
2017-05-15T07:42:00.242Z,1028.13
2017-05-15T07:42:42.326Z,1028.16
2017-05-15T07:43:23.729Z,1028.11
2017-05-15T07:44:06.160Z,1028.17
2017-05-15T07:44:49.044Z,1028.14
2017-05-15T07:45:29.518Z,1028.19
2017-05-15T07:47:51.810Z,1028.2
2017-05-15T07:48:42.193Z,1028.27
2017-05-15T07:50:54.528Z,1028.31
2017-05-15T07:51:43.012Z,1028.3
2017-05-15T07:52:31.929Z,1028.32
2017-05-15T07:53:25.324Z,1028.33
2017-05-15T07:54:17.824Z,1028.35
2017-05-15T07:55:06.241Z,1028.41
2017-05-15T07:55:56.055Z,1028.43
2017-05-15T07:56:45.586Z,1028.41
2017-05-15T07:57:53.685Z,1028.46
2017-05-15T07:59:55.331Z,1028.52
2017-05-15T08:02:47.023Z,1028.54
2017-05-15T08:03:36.118Z,1028.54
2017-05-15T08:04:24.862Z,1028.53
2017-05-15T08:05:13.314Z,1028.51
2017-05-15T08:06:02.314Z,1028.56
2017-05-15T08:06:52.008Z,1028.57
2017-05-15T08:07:38.600Z,1028.6
2017-05-15T08:08:35.568Z,1028.66
2017-05-15T08:09:26.243Z,1028.59
2017-05-15T08:10:34.113Z,1028.54
2017-05-15T08:13:54.044Z,1028.66
2017-05-15T08:14:43.530Z,1028.54
2017-05-15T08:15:31.481Z,1028.61
2017-05-15T08:16:18.922Z,1028.57
2017-05-15T08:17:09.068Z,1028.6
2017-05-15T08:18:00.259Z,1028.61
2017-05-15T08:20:24.331Z,1028.64
2017-05-15T08:21:22.025Z,1028.66
2017-05-15T08:23:43.254Z,1028.64
2017-05-15T08:24:29.597Z,1028.73
2017-05-15T08:25:12.339Z,1028.71
2017-05-15T08:25:54.729Z,1028.65
2017-05-15T08:26:38.905Z,1028.65
2017-05-15T08:27:20.855Z,1028.66
2017-05-15T08:28:02.328Z,1028.65
2017-05-15T08:28:42.790Z,1028.68
2017-05-15T08:29:23.762Z,1028.7
2017-05-15T08:30:06.949Z,1028.66
2017-05-15T08:30:47.586Z,1028.64
2017-05-15T08:31:29.493Z,1028.66
2017-05-15T08:32:11.925Z,1028.67
2017-05-15T08:32:55.696Z,1028.66
2017-05-15T08:33:36.250Z,1028.66
2017-05-15T08:34:19.626Z,1028.63
2017-05-15T08:35:02.054Z,1028.57
2017-05-15T08:35:44.495Z,1028.63
2017-05-15T08:36:25.103Z,1028.62
2017-05-15T08:37:07.303Z,1028.64
2017-05-15T08:37:49.004Z,1028.66
2017-05-15T08:38:30.065Z,1028.63
2017-05-15T08:39:10.662Z,1028.61
2017-05-15T08:39:51.288Z,1028.63
2017-05-15T08:40:31.769Z,1028.66
2017-05-15T08:41:12.247Z,1028.68
2017-05-15T08:41:55.306Z,1028.67
2017-05-15T08:42:40.979Z,1028.63
2017-05-15T08:43:22.346Z,1028.61
2017-05-15T08:44:03.842Z,1028.68
2017-05-15T08:44:47.234Z,1028.7
2017-05-15T08:45:29.288Z,1028.72
2017-05-15T08:46:09.947Z,1028.71
2017-05-15T08:46:50.886Z,1028.71
2017-05-15T08:47:31.461Z,1028.67
2017-05-15T08:48:11.939Z,1028.71
2017-05-15T08:48:52.502Z,1028.69
2017-05-15T08:49:32.957Z,1028.69
2017-05-15T08:50:13.440Z,1028.68
2017-05-15T08:50:53.957Z,1028.7
2017-05-15T08:51:34.469Z,1028.71
2017-05-15T08:52:14.948Z,1028.7
2017-05-15T08:52:56.007Z,1028.7
2017-05-15T08:53:36.598Z,1028.7
2017-05-15T08:54:17.275Z,1028.68
2017-05-15T08:55:04.099Z,1028.77
2017-05-15T08:55:49.057Z,1028.7
2017-05-15T08:56:29.519Z,1028.69